Arcadia, Pennsylvania
Current Conditions -  °F | °C
As of 12:55 PM on Saturday 22 Nov 2014 (Local Time) from KIDI Reporting Station
Haze Haze  
Wind Chill: -1°   Ceiling: 1600
Heat Index:   Visibility: 3mi
Dew Point: -3°   Wind: 7mph
Humidity: 70%   Direction: 230°SW
Pressure: 30.25"   Gusts: NA
Location:  40.78°N, 78.85°W
Report Text: KIDI 221755Z AUTO 23006KT 3SM HZ OVC016 02/M03 A3025 RMK A01
Loading
Personal Weather Stations






























Interactive Weather Map New forecast layout! Learn more

10-Day Weather Forecast

Advertisements
Track Severe Weather on mobile